KORD/ORD METAR and TAF weather

Enter ICAO airport designator
Station Type Date Time Source
KORD METAR 2022/09/26 08:51 UTC NOAA

KORD 260851Z 27008KT 10SM CLR 11/07 A2979 RMK AO2 SLP088 T01110067 56002


Station Type Date Time Source
KORD Decoded METAR 2022/09/26 08:51 UTC NOAA

CHICAGO O'HARE INTERNATIONAL, IL, United States (KORD) 41-59N 087-55W 200M
Sep 26, 2022 - 04:51 AM EDT / 2022.09.26 0851 UTC
Wind: from the W (270 degrees) at 9 MPH (8 KT):0
Visibility: 10 mile(s):0
Sky conditions: clear
Temperature: 52.0 F (11.1 C)
Dew Point: 44.1 F (6.7 C)
Relative Humidity: 74%
Pressure (altimeter): 29.79 in. Hg (1008 hPa)
Pressure tendency: 0.01 inches (0.2 hPa) lower than three hours ago
ob: KORD 260851Z 27008KT 10SM CLR 11/07 A2979 RMK AO2 SLP088 T01110067 56002
cycle: 9

Station Type Date Time Source
KORD TAF 2022/09/26 06:36 UTC NOAA

TAF KORD 260535Z 2606/2712 29011KT P6SM FEW090
FM261400 31016G24KT P6SM BKN045
FM270300 32010KT P6SM SCT050

Example: see airport list